ONX weather

Currituck County Regional Airport
Currituck, North Carolina, United States

Public forecast

Using degrees Fahrenheit for public forecast. Weather courtesy of forecast.io.

METAR (pilot weather report)

Retrieved 2019/02/17 00:00 UTC (10 minutes ago):

KONX 170000Z AUTO 10SM OVC014 04/03 A2992 RMK AO2 T00360026

TAF (pilot weather forecast)

Forecast is more than 12 hours old.

Closest forecast is Elizabeth City Regional Airport & Coast Guard Air Station, 11.3 nm (20.9 km) SW. Retrieved 2019/02/16 00:27 UTC (24 hours ago):

TAF TAF KECG 162323Z 1700/1724 01011KT P6SM FEW008 OVC012 FM170300 36008KT P6SM BKN035 FM171300 03006KT P6SM SCT100 FM171700 06006KT P6SM BKN060 FM172200 10006KT P6SM VCSH OVC030